KRIW

Riverton Regional Airport

Riverton, Wyoming, USA
METAR KRIW 231453Z AUTO 19006KT 10SM SCT015 11/08 A2999 RMK AO2 SLP123 T01060083 58002
Observed Flight Rules
May-23 @ 14:53 UTC (16 minutes ago) Visual Flight Rules
Wind Visibility Clouds
190° at 6 knots 10 miles
  • Scattered at 1,500' AGL
Temperatures Readings
Current 11°C / 52°F
Dewpoint 8°C / 46°F
Humidity 82%
Altimeter 29.99" Hg
Pressure 1012.3 hPa
Elevation 1697
METAR KRIW 231453Z AUTO 19006KT 10SM SCT015 11/08 A2999 RMK AO2 SLP123 T01060083 58002
Observed Flight Rules
May-23 @ 14:53 UTC
(16 minutes ago)
VFR
Wind Visibility
190° at 6 knots 10 miles
Clouds
  • Scattered at 1,500' AGL
Temperature Dewpoint
11°C / 52°F 8°C / 46°F
Humidity Altimeter Pressure
82% 29.99" Hg 1012.3 hPa